Time;durP1;ratioP1;P1;durP2;ratioP2;P2;SDS_P1;SDS_P2;PMS_P1;PMS_P2;Temp;Humidity;BMP_temperature;BMP_pressure;BME280_temperature;BME280_humidity;BME280_pressure;Samples;Min_cycle;Max_cycle;Signal;HPM_P1;HPM_P2
2022/01/04 00:00:09;;;;;;;21.63;6.90;;;;;;;;;;5119574;27;20039;-81
2022/01/04 00:02:36;;;;;;;24.95;7.15;;;;;;;;;;5121164;27;20065;-80
2022/01/04 00:05:02;;;;;;;29.77;7.22;;;;;;;;;;5113993;28;20043;-80
2022/01/04 00:07:28;;;;;;;23.73;6.40;;;;;;;;;;5118288;27;20387;-80
2022/01/04 00:09:54;;;;;;;27.08;6.85;;;;;;;;;;5134282;27;20043;-82
2022/01/04 00:15:06;;;;;;;24.58;6.65;;;;;;;;;;5096231;28;20087;-80
2022/01/04 00:17:32;;;;;;;18.77;6.18;;;;;;;;;;5113609;28;20075;-80
2022/01/04 00:19:58;;;;;;;26.88;6.38;;;;;;;;;;5125083;27;20150;-81
2022/01/04 00:22:24;;;;;;;25.85;6.60;;;;;;;;;;5105403;27;20047;-81
2022/01/04 00:24:51;;;;;;;20.92;6.50;;;;;;;;;;5115720;27;20051;-79
2022/01/04 00:27:17;;;;;;;27.15;6.63;;;;;;;;;;5124325;27;20071;-80
2022/01/04 00:29:43;;;;;;;26.27;6.10;;;;;;;;;;5122421;27;20460;-80
2022/01/04 00:32:09;;;;;;;23.20;6.32;;;;;;;;;;5089991;28;20095;-80
2022/01/04 00:34:35;;;;;;;22.38;6.55;;;;;;;;;;5113413;28;20104;-80
2022/01/04 00:37:01;;;;;;;17.95;5.43;;;;;;;;;;5099991;28;20073;-80
2022/01/04 00:39:27;;;;;;;24.38;6.78;;;;;;;;;;5078223;28;20043;-81
2022/01/04 00:41:54;;;;;;;20.88;6.03;;;;;;;;;;5113748;27;20044;-81
2022/01/04 00:44:20;;;;;;;21.90;6.35;;;;;;;;;;5113065;28;20039;-80
2022/01/04 00:46:46;;;;;;;23.88;6.30;;;;;;;;;;5125897;27;20448;-80
2022/01/04 00:49:12;;;;;;;22.90;5.82;;;;;;;;;;5133763;27;20045;-80
2022/01/04 00:51:40;;;;;;;18.10;6.13;;;;;;;;;;5108944;28;20076;-80
2022/01/04 00:54:06;;;;;;;23.85;7.28;;;;;;;;;;5078127;28;20081;-80
2022/01/04 00:56:32;;;;;;;25.90;6.60;;;;;;;;;;5123559;27;20046;-81
2022/01/04 00:58:58;;;;;;;24.27;7.05;;;;;;;;;;5114698;28;20085;-80
2022/01/04 01:01:24;;;;;;;22.40;6.88;;;;;;;;;;5113993;28;20130;-80
2022/01/04 01:03:50;;;;;;;30.20;7.22;;;;;;;;;;5132354;28;20151;-80
2022/01/04 01:06:17;;;;;;;21.95;7.28;;;;;;;;;;5133395;28;20035;-81
2022/01/04 01:08:44;;;;;;;24.13;7.07;;;;;;;;;;5118223;28;20039;-80
2022/01/04 01:11:10;;;;;;;24.23;7.00;;;;;;;;;;5095966;28;20099;-81
2022/01/04 01:13:37;;;;;;;20.38;7.00;;;;;;;;;;5095263;28;20118;-79
2022/01/04 01:16:03;;;;;;;29.00;7.93;;;;;;;;;;5112768;28;20050;-80
2022/01/04 01:18:29;;;;;;;27.17;7.07;;;;;;;;;;5078714;28;20054;-81
2022/01/04 01:20:55;;;;;;;23.15;7.78;;;;;;;;;;5113008;28;20101;-81
2022/01/04 01:23:22;;;;;;;21.33;7.40;;;;;;;;;;5122457;28;20043;-81
2022/01/04 01:25:48;;;;;;;21.55;6.82;;;;;;;;;;5098225;28;20039;-80
2022/01/04 01:28:15;;;;;;;25.33;7.03;;;;;;;;;;5115190;28;20040;-79
2022/01/04 01:30:43;;;;;;;23.10;6.70;;;;;;;;;;5126864;28;20485;-80
2022/01/04 01:33:09;;;;;;;24.25;7.03;;;;;;;;;;5118033;28;20048;-80
2022/01/04 01:35:37;;;;;;;26.55;7.40;;;;;;;;;;5112709;28;20044;-81
2022/01/04 01:38:03;;;;;;;23.45;7.90;;;;;;;;;;5124362;28;20038;-81
2022/01/04 01:40:30;;;;;;;26.50;7.80;;;;;;;;;;5133023;28;20074;-81
2022/01/04 01:42:56;;;;;;;21.63;6.93;;;;;;;;;;5115704;28;20481;-80
2022/01/04 01:45:23;;;;;;;25.80;7.47;;;;;;;;;;5112618;28;20089;-81
2022/01/04 01:47:49;;;;;;;21.30;7.18;;;;;;;;;;5127403;28;20049;-80
2022/01/04 01:50:16;;;;;;;26.75;7.85;;;;;;;;;;5119751;28;20050;-81
2022/01/04 01:52:43;;;;;;;28.02;7.85;;;;;;;;;;5122880;28;20110;-80
2022/01/04 01:55:10;;;;;;;30.38;7.22;;;;;;;;;;5081006;28;20037;-81
2022/01/04 01:57:36;;;;;;;24.30;7.43;;;;;;;;;;5133252;28;20514;-80
2022/01/04 02:00:04;;;;;;;25.25;7.35;;;;;;;;;;5123257;28;20396;-79
2022/01/04 02:02:30;;;;;;;23.15;7.30;;;;;;;;;;5112134;28;20044;-80
2022/01/04 02:04:56;;;;;;;25.15;8.35;;;;;;;;;;5113224;28;20421;-81
2022/01/04 02:07:22;;;;;;;28.45;8.43;;;;;;;;;;5120487;27;20379;-80
2022/01/04 02:10:03;;;;;;;25.33;8.20;;;;;;;;;;5136965;27;20391;-80
2022/01/04 02:12:33;;;;;;;21.85;7.20;;;;;;;;;;5122561;27;20032;-81
2022/01/04 02:15:00;;;;;;;28.50;7.75;;;;;;;;;;5116164;28;20051;-81
2022/01/04 02:17:26;;;;;;;24.90;7.35;;;;;;;;;;5098127;28;20051;-80
2022/01/04 02:19:56;;;;;;;25.83;8.32;;;;;;;;;;5115500;27;20049;-81
2022/01/04 02:22:22;;;;;;;30.77;7.88;;;;;;;;;;5115936;28;20043;-80
2022/01/04 02:24:48;;;;;;;24.42;7.65;;;;;;;;;;5115922;28;20047;-81
2022/01/04 02:27:14;;;;;;;26.48;7.68;;;;;;;;;;5120031;27;20070;-80
2022/01/04 02:29:41;;;;;;;21.25;7.55;;;;;;;;;;5114026;28;20577;-80
2022/01/04 02:32:07;;;;;;;27.63;7.85;;;;;;;;;;5115384;28;20527;-80
2022/01/04 02:34:33;;;;;;;22.88;7.35;;;;;;;;;;5115200;28;20042;-80
2022/01/04 02:37:00;;;;;;;25.38;8.13;;;;;;;;;;5115886;28;20122;-80
2022/01/04 02:39:26;;;;;;;27.38;8.57;;;;;;;;;;5096959;28;20082;-80
2022/01/04 02:41:52;;;;;;;27.23;9.18;;;;;;;;;;5115158;27;20040;-80
2022/01/04 02:44:18;;;;;;;22.70;8.60;;;;;;;;;;5097057;28;20472;-80
2022/01/04 02:46:45;;;;;;;28.98;9.02;;;;;;;;;;5114980;27;20318;-79
2022/01/04 02:49:11;;;;;;;27.52;9.02;;;;;;;;;;5097684;27;20035;-80
2022/01/04 02:51:38;;;;;;;29.02;9.38;;;;;;;;;;5115143;28;20047;-79
2022/01/04 02:54:04;;;;;;;30.38;9.25;;;;;;;;;;5135273;27;20050;-80
2022/01/04 02:56:30;;;;;;;28.92;9.85;;;;;;;;;;5135894;27;20078;-80
2022/01/04 02:59:03;;;;;;;25.38;10.13;;;;;;;;;;5127737;27;20088;-80
2022/01/04 03:01:29;;;;;;;23.15;9.57;;;;;;;;;;5116890;27;20047;-82
2022/01/04 03:03:55;;;;;;;27.35;10.18;;;;;;;;;;5116769;27;20385;-81
2022/01/04 03:06:21;;;;;;;26.60;9.57;;;;;;;;;;5097488;27;20043;-80
2022/01/04 03:08:47;;;;;;;26.85;10.50;;;;;;;;;;5115025;28;20039;-79
2022/01/04 03:11:14;;;;;;;25.65;9.90;;;;;;;;;;5128872;27;20038;-81
2022/01/04 03:13:40;;;;;;;27.13;10.77;;;;;;;;;;5096939;28;20050;-81
2022/01/04 03:16:06;;;;;;;28.95;11.35;;;;;;;;;;5114229;27;20054;-79
2022/01/04 03:18:32;;;;;;;29.30;10.50;;;;;;;;;;5116378;27;20054;-81
2022/01/04 03:20:58;;;;;;;30.48;12.32;;;;;;;;;;5134111;27;20043;-80
2022/01/04 03:23:25;;;;;;;29.63;12.10;;;;;;;;;;5135149;27;20145;-79
2022/01/04 03:25:51;;;;;;;30.67;13.27;;;;;;;;;;5108463;28;20074;-80
2022/01/04 03:28:19;;;;;;;27.65;12.32;;;;;;;;;;5114352;27;20489;-80
2022/01/04 03:30:46;;;;;;;24.20;11.85;;;;;;;;;;5097339;27;20454;-80
2022/01/04 03:33:12;;;;;;;25.98;13.43;;;;;;;;;;5114636;28;20441;-80
2022/01/04 03:35:38;;;;;;;32.72;13.93;;;;;;;;;;5114268;28;20039;-80
2022/01/04 03:38:04;;;;;;;30.45;13.95;;;;;;;;;;5113951;27;20114;-80
2022/01/04 03:40:31;;;;;;;29.73;12.98;;;;;;;;;;5114214;28;20437;-80
2022/01/04 03:42:57;;;;;;;30.10;14.50;;;;;;;;;;5113846;27;20551;-81
2022/01/04 03:45:23;;;;;;;36.65;16.27;;;;;;;;;;5114023;28;20110;-80
2022/01/04 03:47:49;;;;;;;29.20;13.98;;;;;;;;;;5114694;27;20485;-79
2022/01/04 03:50:15;;;;;;;30.60;15.57;;;;;;;;;;5114312;27;20060;-81
2022/01/04 03:52:41;;;;;;;33.72;14.90;;;;;;;;;;5114175;28;20380;-80
2022/01/04 03:55:09;;;;;;;28.65;16.08;;;;;;;;;;5114149;28;20388;-80
2022/01/04 03:57:35;;;;;;;27.67;15.30;;;;;;;;;;5123544;27;20035;-81
2022/01/04 04:00:01;;;;;;;33.53;15.95;;;;;;;;;;5109160;28;20036;-81
2022/01/04 04:02:27;;;;;;;28.75;15.70;;;;;;;;;;5113749;28;20466;-80
2022/01/04 04:04:54;;;;;;;27.40;15.55;;;;;;;;;;5127734;27;20049;-80
2022/01/04 04:07:20;;;;;;;38.42;16.70;;;;;;;;;;5115803;27;20043;-80
2022/01/04 04:09:46;;;;;;;33.15;17.17;;;;;;;;;;5103450;28;20055;-80
2022/01/04 04:12:14;;;;;;;36.40;18.33;;;;;;;;;;5095797;28;20051;-80
2022/01/04 04:14:40;;;;;;;34.03;17.17;;;;;;;;;;5113775;28;20043;-81
2022/01/04 04:17:06;;;;;;;31.50;18.08;;;;;;;;;;5113628;27;20050;-81
2022/01/04 04:19:33;;;;;;;30.33;16.95;;;;;;;;;;5115456;27;20050;-79
2022/01/04 04:21:59;;;;;;;34.00;18.55;;;;;;;;;;5119391;27;20043;-79
2022/01/04 04:24:25;;;;;;;35.22;18.63;;;;;;;;;;5113516;28;20046;-80
2022/01/04 04:26:51;;;;;;;29.90;17.45;;;;;;;;;;5095692;28;20127;-80
2022/01/04 04:29:17;;;;;;;36.97;18.88;;;;;;;;;;5112773;28;20057;-79
2022/01/04 04:31:43;;;;;;;32.95;17.63;;;;;;;;;;5129611;27;20035;-81
2022/01/04 04:34:09;;;;;;;40.88;19.58;;;;;;;;;;5123913;27;20062;-81
2022/01/04 04:36:35;;;;;;;35.45;19.70;;;;;;;;;;5113402;28;20042;-81
2022/01/04 04:39:01;;;;;;;41.15;20.30;;;;;;;;;;5113038;27;20430;-81
2022/01/04 04:41:27;;;;;;;39.50;21.17;;;;;;;;;;5113997;27;20046;-81
2022/01/04 04:43:54;;;;;;;35.30;20.10;;;;;;;;;;5113442;28;20039;-81
2022/01/04 04:46:22;;;;;;;33.65;19.67;;;;;;;;;;5113032;27;20043;-81
2022/01/04 04:48:48;;;;;;;37.15;20.65;;;;;;;;;;5113367;28;20071;-80
2022/01/04 04:51:15;;;;;;;37.60;20.58;;;;;;;;;;5113005;27;20040;-80
2022/01/04 04:53:41;;;;;;;39.97;22.33;;;;;;;;;;5113563;27;20035;-80
2022/01/04 04:56:07;;;;;;;35.03;21.95;;;;;;;;;;5113099;28;20046;-81
2022/01/04 04:58:33;;;;;;;36.55;21.90;;;;;;;;;;5112813;27;20048;-80
2022/01/04 05:00:59;;;;;;;44.58;23.13;;;;;;;;;;5113213;27;20435;-79
2022/01/04 05:03:25;;;;;;;36.83;21.42;;;;;;;;;;5112828;28;20062;-80
2022/01/04 05:05:51;;;;;;;36.65;20.92;;;;;;;;;;5112850;28;20150;-80
2022/01/04 05:08:17;;;;;;;40.75;23.77;;;;;;;;;;5119021;27;20190;-81
2022/01/04 05:10:43;;;;;;;33.75;21.13;;;;;;;;;;5115161;28;20050;-81
2022/01/04 05:13:09;;;;;;;45.25;23.85;;;;;;;;;;5115073;27;20043;-79
2022/01/04 05:15:35;;;;;;;37.65;21.33;;;;;;;;;;5112728;27;20043;-81
2022/01/04 05:18:01;;;;;;;41.10;23.67;;;;;;;;;;5112558;28;20764;-81
2022/01/04 05:20:28;;;;;;;39.72;23.15;;;;;;;;;;5113374;27;20520;-80
2022/01/04 05:22:54;;;;;;;38.67;22.17;;;;;;;;;;5112440;27;20118;-81
2022/01/04 05:25:20;;;;;;;40.20;23.60;;;;;;;;;;5127843;27;20047;-80
2022/01/04 05:27:46;;;;;;;37.90;22.02;;;;;;;;;;5133470;28;20035;-80
2022/01/04 05:30:12;;;;;;;42.50;22.88;;;;;;;;;;5118909;27;20042;-82
2022/01/04 05:32:38;;;;;;;41.15;22.88;;;;;;;;;;5133325;28;20039;-80
2022/01/04 05:35:04;;;;;;;35.55;21.38;;;;;;;;;;5120074;28;20035;-80
2022/01/04 05:37:30;;;;;;;37.80;22.30;;;;;;;;;;5112499;27;20130;-80
2022/01/04 05:39:57;;;;;;;36.85;22.40;;;;;;;;;;5112063;27;20040;-80
2022/01/04 05:42:23;;;;;;;37.55;20.80;;;;;;;;;;5096463;28;20469;-80
2022/01/04 05:44:49;;;;;;;41.53;22.02;;;;;;;;;;5098459;28;20354;-81
2022/01/04 05:47:15;;;;;;;37.53;22.27;;;;;;;;;;5116603;28;20046;-80
2022/01/04 05:49:41;;;;;;;37.78;21.23;;;;;;;;;;5116219;27;20031;-81
2022/01/04 05:52:07;;;;;;;36.38;20.85;;;;;;;;;;5116459;28;20054;-81
2022/01/04 05:54:34;;;;;;;35.95;20.88;;;;;;;;;;5127138;27;20035;-81
2022/01/04 05:57:00;;;;;;;36.72;20.63;;;;;;;;;;5137031;27;20118;-80
2022/01/04 05:59:26;;;;;;;38.65;20.08;;;;;;;;;;5103502;28;20047;-80
2022/01/04 06:01:52;;;;;;;38.33;21.05;;;;;;;;;;5132066;27;20035;-79
2022/01/04 06:04:18;;;;;;;34.60;20.30;;;;;;;;;;5105271;28;20075;-81
2022/01/04 06:06:45;;;;;;;34.95;20.70;;;;;;;;;;5098105;28;20039;-80
2022/01/04 06:09:20;;;;;;;35.17;20.48;;;;;;;;;;5103632;27;20050;-80
2022/01/04 06:17:00;;;;;;;32.60;19.00;;;;;;;;;;5115856;28;20051;-81
2022/01/04 06:19:26;;;;;;;35.63;20.80;;;;;;;;;;5115706;28;20047;-81
2022/01/04 06:21:53;;;;;;;39.70;21.05;;;;;;;;;;5117318;27;20042;-81
2022/01/04 06:24:19;;;;;;;38.90;20.55;;;;;;;;;;5116070;27;20411;-82
2022/01/04 06:26:45;;;;;;;35.53;20.23;;;;;;;;;;5129169;27;20053;-80
2022/01/04 06:29:11;;;;;;;33.58;19.30;;;;;;;;;;5135668;27;20047;-79
2022/01/04 06:31:39;;;;;;;30.55;19.60;;;;;;;;;;5123278;27;20040;-82
2022/01/04 06:34:05;;;;;;;30.48;19.60;;;;;;;;;;5097392;28;20465;-81
2022/01/04 06:36:31;;;;;;;33.42;19.77;;;;;;;;;;5121486;27;20044;-80
2022/01/04 06:38:58;;;;;;;36.20;19.98;;;;;;;;;;5116009;27;20043;-80
2022/01/04 06:41:24;;;;;;;36.67;20.60;;;;;;;;;;5115180;28;20043;-80
2022/01/04 06:43:50;;;;;;;35.50;19.80;;;;;;;;;;5115716;27;20040;-80
2022/01/04 06:46:16;;;;;;;34.83;21.10;;;;;;;;;;5115386;28;20082;-81
2022/01/04 06:48:42;;;;;;;35.78;19.83;;;;;;;;;;5115664;27;20088;-80
2022/01/04 06:51:09;;;;;;;36.50;20.20;;;;;;;;;;5080422;28;20094;-80
2022/01/04 06:53:36;;;;;;;40.15;21.85;;;;;;;;;;5102876;27;20126;-80
2022/01/04 06:56:02;;;;;;;34.05;20.02;;;;;;;;;;5134861;27;20464;-80
2022/01/04 06:58:28;;;;;;;37.25;21.75;;;;;;;;;;5135536;27;20084;-80
2022/01/04 07:00:54;;;;;;;39.75;23.23;;;;;;;;;;5135739;27;20039;-81
2022/01/04 07:03:20;;;;;;;41.90;22.83;;;;;;;;;;5135447;27;20384;-80
2022/01/04 07:05:46;;;;;;;36.90;21.75;;;;;;;;;;5134832;27;20181;-80
2022/01/04 07:08:12;;;;;;;39.70;21.55;;;;;;;;;;5135595;27;20077;-81
2022/01/04 07:10:39;;;;;;;39.00;22.60;;;;;;;;;;5135685;27;20521;-81
2022/01/04 07:13:05;;;;;;;38.25;22.35;;;;;;;;;;5135289;27;20102;-81
2022/01/04 07:15:31;;;;;;;35.13;21.33;;;;;;;;;;5135309;27;20043;-81
2022/01/04 07:17:57;;;;;;;38.20;22.67;;;;;;;;;;5135060;27;20039;-81
2022/01/04 07:20:23;;;;;;;34.90;20.23;;;;;;;;;;5135121;27;20505;-81
2022/01/04 07:22:50;;;;;;;38.65;20.90;;;;;;;;;;5135466;27;20038;-81
2022/01/04 07:25:16;;;;;;;35.75;22.60;;;;;;;;;;5134149;27;20054;-81
2022/01/04 07:27:42;;;;;;;35.03;21.88;;;;;;;;;;5134777;27;20039;-80
2022/01/04 07:30:08;;;;;;;31.67;19.73;;;;;;;;;;5133686;27;20410;-82
2022/01/04 07:32:34;;;;;;;34.20;20.98;;;;;;;;;;5134823;27;20050;-80
2022/01/04 07:35:00;;;;;;;34.55;20.75;;;;;;;;;;5134964;27;20057;-81
2022/01/04 07:37:26;;;;;;;39.08;22.08;;;;;;;;;;5133987;27;20043;-81
2022/01/04 07:39:52;;;;;;;39.95;21.88;;;;;;;;;;5134874;27;20425;-81
2022/01/04 07:42:18;;;;;;;37.00;23.60;;;;;;;;;;5133997;27;20456;-80
2022/01/04 07:44:45;;;;;;;40.00;24.17;;;;;;;;;;5134890;27;20503;-81
2022/01/04 07:47:11;;;;;;;41.47;23.05;;;;;;;;;;5134843;27;20434;-80
2022/01/04 07:49:37;;;;;;;43.78;23.83;;;;;;;;;;5134069;27;20043;-81
2022/01/04 07:52:04;;;;;;;41.83;25.63;;;;;;;;;;5135701;27;20380;-80
2022/01/04 07:54:30;;;;;;;39.25;24.60;;;;;;;;;;5116984;27;20491;-81
2022/01/04 07:56:56;;;;;;;37.78;22.90;;;;;;;;;;5135269;27;20039;-81
2022/01/04 07:59:23;;;;;;;36.33;22.95;;;;;;;;;;5133452;27;20051;-81
2022/01/04 08:01:50;;;;;;;34.50;23.23;;;;;;;;;;5135125;27;20107;-81
2022/01/04 08:04:16;;;;;;;33.30;21.92;;;;;;;;;;5130815;27;20074;-80
2022/01/04 08:06:42;;;;;;;34.25;22.05;;;;;;;;;;5095253;28;20092;-81
2022/01/04 08:09:08;;;;;;;33.45;21.67;;;;;;;;;;5110509;27;20447;-82
2022/01/04 08:11:34;;;;;;;36.90;24.20;;;;;;;;;;5135375;27;20072;-82
2022/01/04 08:14:00;;;;;;;41.13;23.02;;;;;;;;;;5115207;27;20049;-82
2022/01/04 08:16:27;;;;;;;37.22;23.35;;;;;;;;;;5135110;27;20177;-80
2022/01/04 08:18:53;;;;;;;40.85;23.90;;;;;;;;;;5098844;27;20043;-82
2022/01/04 08:21:19;;;;;;;39.33;23.45;;;;;;;;;;5117311;27;20051;-82
2022/01/04 08:23:45;;;;;;;34.10;23.20;;;;;;;;;;5116492;27;20134;-81
2022/01/04 08:26:11;;;;;;;37.88;24.23;;;;;;;;;;5133069;27;20061;-82
2022/01/04 08:28:37;;;;;;;36.60;25.23;;;;;;;;;;5132722;27;20126;-81
2022/01/04 08:31:03;;;;;;;34.17;23.20;;;;;;;;;;5116181;27;20035;-81
2022/01/04 08:33:30;;;;;;;41.30;25.50;;;;;;;;;;5134790;27;20039;-81
2022/01/04 08:35:56;;;;;;;34.15;23.60;;;;;;;;;;5134510;27;20043;-81
2022/01/04 08:38:22;;;;;;;38.28;24.73;;;;;;;;;;5134247;27;20365;-81
2022/01/04 08:40:48;;;;;;;34.10;22.60;;;;;;;;;;5116198;27;20042;-81
2022/01/04 08:43:14;;;;;;;36.92;24.40;;;;;;;;;;5135586;27;20421;-81
2022/01/04 08:45:40;;;;;;;36.05;24.08;;;;;;;;;;5153885;27;20042;-82
2022/01/04 08:48:06;;;;;;;31.33;23.15;;;;;;;;;;5134682;27;20039;-82
2022/01/04 08:50:33;;;;;;;32.30;22.67;;;;;;;;;;5136320;27;20118;-78
2022/01/04 08:53:00;;;;;;;28.60;20.70;;;;;;;;;;5135118;27;20115;-82
2022/01/04 08:55:26;;;;;;;30.92;20.38;;;;;;;;;;5115313;28;20468;-80
2022/01/04 08:57:52;;;;;;;29.75;20.02;;;;;;;;;;5133402;27;20045;-81
2022/01/04 09:00:18;;;;;;;31.33;21.40;;;;;;;;;;5115403;27;20392;-82
2022/01/04 09:02:45;;;;;;;29.20;21.10;;;;;;;;;;5149088;27;20193;-81
2022/01/04 09:05:12;;;;;;;34.97;24.08;;;;;;;;;;5136193;27;20442;-82
2022/01/04 09:07:38;;;;;;;38.05;22.92;;;;;;;;;;5133359;28;20388;-81
2022/01/04 09:10:05;;;;;;;35.42;23.35;;;;;;;;;;5114570;28;20050;-82
2022/01/04 09:13:17;;;;;;;35.88;24.30;;;;;;;;;;5095522;28;20048;-82
2022/01/04 09:15:45;;;;;;;36.47;23.60;;;;;;;;;;5101309;28;20094;-81
2022/01/04 09:20:56;;;;;;;44.30;24.50;;;;;;;;;;5122624;27;20046;-80
2022/01/04 09:23:22;;;;;;;24.65;16.17;;;;;;;;;;5137544;27;20050;-80
2022/01/04 09:25:49;;;;;;;15.25;7.60;;;;;;;;;;5137575;27;20038;-80
2022/01/04 09:28:16;;;;;;;10.57;6.75;;;;;;;;;;5140623;27;20540;-80
2022/01/04 09:30:44;;;;;;;9.77;4.65;;;;;;;;;;5158116;27;20122;-80
2022/01/04 09:33:10;;;;;;;10.60;5.00;;;;;;;;;;5158012;27;20387;-79
2022/01/04 09:35:37;;;;;;;12.13;5.18;;;;;;;;;;5158174;27;20137;-80
2022/01/04 09:38:04;;;;;;;11.15;4.55;;;;;;;;;;5157830;27;20039;-80
2022/01/04 09:40:30;;;;;;;10.45;3.70;;;;;;;;;;5158073;27;20127;-80
2022/01/04 09:42:57;;;;;;;11.93;3.30;;;;;;;;;;5122259;27;20488;-79
2022/01/04 09:45:23;;;;;;;9.70;3.53;;;;;;;;;;5157864;27;20125;-81
2022/01/04 09:47:49;;;;;;;11.10;2.63;;;;;;;;;;5139615;27;20054;-80
2022/01/04 09:50:16;;;;;;;8.57;2.17;;;;;;;;;;5157957;27;20096;-80
2022/01/04 09:52:49;;;;;;;8.15;2.13;;;;;;;;;;5158115;27;20078;-80
2022/01/04 09:55:16;;;;;;;10.32;2.88;;;;;;;;;;5145067;27;20039;-81
2022/01/04 09:57:43;;;;;;;11.27;2.60;;;;;;;;;;5118929;27;20392;-81
2022/01/04 10:00:14;;;;;;;10.30;2.58;;;;;;;;;;5136889;27;20088;-82
2022/01/04 10:02:40;;;;;;;11.05;2.83;;;;;;;;;;5136681;27;20427;-82
2022/01/04 10:05:17;;;;;;;10.43;2.65;;;;;;;;;;5143437;27;20046;-80
2022/01/04 10:07:44;;;;;;;12.90;2.80;;;;;;;;;;5157375;27;20444;-81
2022/01/04 10:10:11;;;;;;;11.40;2.78;;;;;;;;;;5098251;28;20166;-80
2022/01/04 10:12:51;;;;;;;10.73;2.92;;;;;;;;;;5116339;28;20047;-81
2022/01/04 10:15:36;;;;;;;16.85;2.83;;;;;;;;;;5098334;28;20050;-81
2022/01/04 10:18:16;;;;;;;13.15;3.03;;;;;;;;;;5121717;27;20383;-82
2022/01/04 10:21:05;;;;;;;17.38;3.22;;;;;;;;;;5136574;27;20047;-81
2022/01/04 10:23:31;;;;;;;17.42;3.35;;;;;;;;;;5123748;27;20377;-80
2022/01/04 10:26:04;;;;;;;13.57;3.10;;;;;;;;;;5136507;27;20049;-81
2022/01/04 10:28:30;;;;;;;13.50;3.15;;;;;;;;;;5117010;27;20043;-81
2022/01/04 10:30:59;;;;;;;16.00;3.30;;;;;;;;;;5117786;27;20082;-81
2022/01/04 10:33:27;;;;;;;14.85;3.88;;;;;;;;;;5136069;27;20232;-80
2022/01/04 10:35:54;;;;;;;22.75;3.83;;;;;;;;;;5117916;27;20054;-79
2022/01/04 10:38:21;;;;;;;21.27;4.10;;;;;;;;;;5134853;27;20174;-79
2022/01/04 10:40:47;;;;;;;16.00;3.33;;;;;;;;;;5135142;27;20054;-79
2022/01/04 10:43:15;;;;;;;14.82;3.35;;;;;;;;;;5135894;27;20143;-79
2022/01/04 10:45:45;;;;;;;11.75;2.53;;;;;;;;;;5117728;27;20047;-80
2022/01/04 10:48:16;;;;;;;9.15;2.60;;;;;;;;;;5135616;27;20039;-80
2022/01/04 10:50:43;;;;;;;19.70;7.07;;;;;;;;;;5136012;27;20043;-78
2022/01/04 10:53:18;;;;;;;17.52;8.00;;;;;;;;;;5135541;27;20499;-78
2022/01/04 10:55:46;;;;;;;20.65;8.27;;;;;;;;;;5117412;27;20035;-78
2022/01/04 10:58:20;;;;;;;17.45;8.65;;;;;;;;;;5117559;27;20058;-78
2022/01/04 11:01:00;;;;;;;16.40;8.20;;;;;;;;;;5135453;27;20506;-78
2022/01/04 11:03:31;;;;;;;16.88;6.95;;;;;;;;;;5135534;27;20062;-78
2022/01/04 11:06:02;;;;;;;16.75;9.70;;;;;;;;;;5135493;27;20179;-79
2022/01/04 11:08:28;;;;;;;;;;;;;;;;;;5135900;27;20039;-79
2022/01/04 11:10:55;;;;;;;7.47;2.95;;;;;;;;;;5117243;27;20275;-79
2022/01/04 11:13:22;;;;;;;8.25;1.90;;;;;;;;;;5135001;27;20050;-80
2022/01/04 11:15:48;;;;;;;7.78;1.90;;;;;;;;;;5135624;27;20066;-81
2022/01/04 11:18:14;;;;;;;6.97;1.90;;;;;;;;;;5117189;27;20043;-81
2022/01/04 11:20:41;;;;;;;10.13;2.13;;;;;;;;;;5120007;27;20526;-80
2022/01/04 11:23:08;;;;;;;9.23;2.08;;;;;;;;;;5136269;27;20042;-81
2022/01/04 11:25:35;;;;;;;9.40;2.13;;;;;;;;;;5137675;27;20043;-81
2022/01/04 11:28:01;;;;;;;5.60;1.63;;;;;;;;;;5118334;27;20077;-81
2022/01/04 11:30:37;;;;;;;10.77;1.50;;;;;;;;;;5100970;27;20074;-80
2022/01/04 11:33:26;;;;;;;7.65;1.67;;;;;;;;;;5101651;27;20051;-81
2022/01/04 11:35:53;;;;;;;6.07;1.45;;;;;;;;;;5117668;27;20104;-80
2022/01/04 11:38:30;;;;;;;8.43;1.58;;;;;;;;;;5136937;27;20078;-80
2022/01/04 11:40:56;;;;;;;5.57;1.63;;;;;;;;;;5118274;27;20085;-81
2022/01/04 11:43:27;;;;;;;8.85;1.50;;;;;;;;;;5136012;27;20066;-81
2022/01/04 11:45:53;;;;;;;6.97;1.33;;;;;;;;;;5135461;27;20054;-82
2022/01/04 11:48:25;;;;;;;9.43;1.73;;;;;;;;;;5134989;27;20047;-80
2022/01/04 11:50:52;;;;;;;5.95;1.70;;;;;;;;;;5135622;27;20460;-81
2022/01/04 11:53:18;;;;;;;6.65;1.13;;;;;;;;;;5117406;27;20092;-79
2022/01/04 11:55:52;;;;;;;5.45;1.20;;;;;;;;;;5116949;27;20126;-80
2022/01/04 11:58:20;;;;;;;4.72;0.90;;;;;;;;;;5135390;27;20100;-81
2022/01/04 12:01:05;;;;;;;9.38;1.10;;;;;;;;;;5134426;27;20054;-81
2022/01/04 12:03:45;;;;;;;5.65;1.08;;;;;;;;;;5134315;27;20108;-80
2022/01/04 12:06:13;;;;;;;9.23;1.13;;;;;;;;;;5099616;27;20050;-80
2022/01/04 12:08:41;;;;;;;7.05;1.00;;;;;;;;;;5116689;27;20047;-81
2022/01/04 12:11:34;;;;;;;7.93;1.60;;;;;;;;;;5115851;27;20432;-81
2022/01/04 12:14:02;;;;;;;9.27;1.00;;;;;;;;;;5130765;27;20541;-81
2022/01/04 12:16:45;;;;;;;4.55;0.90;;;;;;;;;;5134225;27;20039;-82
2022/01/04 12:19:13;;;;;;;9.77;1.30;;;;;;;;;;5134036;27;20130;-81
2022/01/04 12:21:40;;;;;;;6.28;1.10;;;;;;;;;;5116175;27;20092;-81
2022/01/04 12:24:07;;;;;;;5.85;1.00;;;;;;;;;;5133993;27;20042;-81
2022/01/04 12:26:34;;;;;;;7.00;1.00;;;;;;;;;;5134419;27;20039;-81
2022/01/04 12:29:00;;;;;;;2.45;0.50;;;;;;;;;;5134207;27;20047;-80
2022/01/04 12:31:27;;;;;;;1.85;0.38;;;;;;;;;;5134346;27;20047;-81
2022/01/04 12:34:00;;;;;;;2.63;0.70;;;;;;;;;;5133896;27;20475;-81
2022/01/04 12:36:30;;;;;;;3.20;0.55;;;;;;;;;;5098556;27;20129;-81
2022/01/04 12:38:57;;;;;;;5.00;1.00;;;;;;;;;;5134142;27;20179;-81
2022/01/04 12:41:24;;;;;;;5.07;0.68;;;;;;;;;;5134280;27;20125;-81
2022/01/04 12:43:50;;;;;;;6.78;1.00;;;;;;;;;;5115916;27;20047;-81
2022/01/04 12:46:27;;;;;;;7.13;1.02;;;;;;;;;;5098766;27;20053;-80
2022/01/04 12:48:56;;;;;;;8.43;0.90;;;;;;;;;;5133728;27;20130;-80
2022/01/04 12:51:38;;;;;;;6.45;0.98;;;;;;;;;;5133256;27;20086;-81
2022/01/04 12:54:10;;;;;;;5.75;0.90;;;;;;;;;;5133908;27;20039;-81
2022/01/04 12:56:45;;;;;;;11.40;1.92;;;;;;;;;;5133810;27;20047;-81
2022/01/04 12:59:18;;;;;;;8.20;1.20;;;;;;;;;;5133501;27;20059;-81
2022/01/04 13:01:48;;;;;;;6.07;1.30;;;;;;;;;;5133514;27;20043;-82
2022/01/04 13:04:20;;;;;;;8.68;1.35;;;;;;;;;;5133341;27;20100;-81
2022/01/04 13:06:47;;;;;;;9.93;1.30;;;;;;;;;;5115301;28;20047;-81
2022/01/04 13:09:17;;;;;;;8.73;1.45;;;;;;;;;;5133469;28;20043;-81
2022/01/04 13:11:53;;;;;;;8.55;1.35;;;;;;;;;;5133094;28;20050;-81
2022/01/04 13:14:21;;;;;;;7.50;2.13;;;;;;;;;;5098038;28;20122;-80
2022/01/04 13:16:48;;;;;;;9.43;1.58;;;;;;;;;;5133468;28;20039;-80
2022/01/04 13:19:16;;;;;;;5.40;1.08;;;;;;;;;;5133375;28;20054;-81
2022/01/04 13:21:43;;;;;;;9.02;1.35;;;;;;;;;;5131424;28;20043;-81
2022/01/04 13:24:09;;;;;;;4.90;1.10;;;;;;;;;;5113626;28;20039;-80
2022/01/04 13:26:35;;;;;;;8.35;1.10;;;;;;;;;;5132397;28;20465;-81
2022/01/04 13:29:02;;;;;;;11.55;1.73;;;;;;;;;;5132427;28;20118;-83
2022/01/04 13:31:28;;;;;;;7.88;1.40;;;;;;;;;;5113391;28;20039;-80
2022/01/04 13:33:55;;;;;;;9.70;2.03;;;;;;;;;;5132797;28;20530;-81
2022/01/04 13:36:25;;;;;;;9.10;1.55;;;;;;;;;;5133095;28;20365;-81
2022/01/04 13:38:57;;;;;;;7.93;1.53;;;;;;;;;;5114769;28;20122;-80
2022/01/04 13:41:37;;;;;;;13.52;1.85;;;;;;;;;;5134010;27;20284;-80
2022/01/04 13:44:04;;;;;;;7.55;0.98;;;;;;;;;;5132876;28;20392;-81
2022/01/04 13:46:31;;;;;;;6.15;1.00;;;;;;;;;;5124338;27;20079;-84
2022/01/04 13:48:59;;;;;;;9.15;1.55;;;;;;;;;;5093981;28;20036;-81
2022/01/04 13:51:27;;;;;;;9.73;1.42;;;;;;;;;;5112426;28;20082;-81
2022/01/04 13:53:55;;;;;;;9.40;1.58;;;;;;;;;;5112729;28;20043;-80
2022/01/04 13:56:23;;;;;;;10.00;1.48;;;;;;;;;;5112615;28;20049;-82
2022/01/04 13:58:58;;;;;;;8.25;1.60;;;;;;;;;;5112382;28;20051;-80
2022/01/04 14:01:29;;;;;;;12.27;2.30;;;;;;;;;;5112245;28;20407;-79
2022/01/04 14:04:18;;;;;;;9.70;2.13;;;;;;;;;;5096470;28;20402;-81
2022/01/04 14:06:47;;;;;;;8.30;1.63;;;;;;;;;;5103271;28;20073;-81
2022/01/04 14:09:16;;;;;;;9.88;1.98;;;;;;;;;;5116265;28;20039;-81
2022/01/04 14:11:44;;;;;;;9.25;2.58;;;;;;;;;;5098254;28;20044;-81
2022/01/04 14:14:11;;;;;;;12.88;3.17;;;;;;;;;;5116110;28;20046;-80
2022/01/04 14:16:55;;;;;;;11.65;2.85;;;;;;;;;;5115937;28;20043;-81
2022/01/04 14:19:21;;;;;;;13.38;2.40;;;;;;;;;;5097668;28;20039;-81
2022/01/04 14:22:07;;;;;;;10.55;2.20;;;;;;;;;;5097681;28;20062;-81
2022/01/04 14:24:36;;;;;;;12.80;1.60;;;;;;;;;;5115571;28;20495;-81
2022/01/04 14:27:02;;;;;;;7.22;1.40;;;;;;;;;;5115389;28;20094;-80
2022/01/04 14:29:34;;;;;;;9.18;1.60;;;;;;;;;;5115896;28;20040;-80
2022/01/04 14:32:04;;;;;;;11.27;1.67;;;;;;;;;;5097448;28;20093;-80
2022/01/04 14:34:30;;;;;;;11.63;1.40;;;;;;;;;;5115540;28;20055;-80
2022/01/04 14:36:58;;;;;;;11.50;1.25;;;;;;;;;;5115184;28;20047;-80
2022/01/04 14:39:25;;;;;;;9.60;1.20;;;;;;;;;;5115155;28;20036;-81
2022/01/04 14:41:52;;;;;;;7.82;1.20;;;;;;;;;;5115353;28;20358;-80